La rose des vents
Donnes mto: Semaine 18/08/08 - 24/08/08 (S 34)
Date Horaire Temp. E. Hum. E. P.atmo. Pluie Vent 1mn Direction Ensoleilleme Ev.Tr. Solaire P. de rose Temp au vent Rafales
18/08/2008 00:00 18,0 C 84 % 1012,4 hPa 0,0 l/m 4,1 km/h (1 Bft) O-NO 0,00 h 0,025 mm 0 W/m 15,1 C 18,0 C 5,8 km/h (2 Bft)
18/08/2008 01:00 17,7 C 83 % 1012,6 hPa 0,0 l/m 3,0 km/h (1 Bft) O-NO 0,00 h 0,025 mm 0 W/m 14,8 C 17,7 C 4,8 km/h (1 Bft)
18/08/2008 02:00 17,7 C 80 % 1013,1 hPa 0,0 l/m 2,9 km/h (1 Bft) O-NO 0,00 h 0,025 mm 0 W/m 14,3 C 17,7 C 4,1 km/h (1 Bft)
18/08/2008 03:00 17,5 C 80 % 1013,1 hPa 0,0 l/m 3,9 km/h (1 Bft) O-NO 0,00 h 0,025 mm 0 W/m 14,1 C 17,5 C 5,2 km/h (1 Bft)
18/08/2008 04:00 17,6 C 80 % 1013,2 hPa 0,0 l/m 4,8 km/h (1 Bft) O-NO 0,00 h 0,025 mm 0 W/m 14,1 C 17,6 C 6,5 km/h (2 Bft)
18/08/2008 05:00 17,1 C 80 % 1013,4 hPa 0,0 l/m 4,6 km/h (1 Bft) O-NO 0,00 h 0,025 mm 0 W/m 13,7 C 17,1 C 6,4 km/h (2 Bft)
18/08/2008 06:00 17,0 C 79 % 1013,9 hPa 0,0 l/m 3,3 km/h (1 Bft) O-NO 0,03 h 0,025 mm 9 W/m 13,4 C 17,0 C 5,5 km/h (1 Bft)
18/08/2008 07:00 17,7 C 78 % 1014,3 hPa 0,0 l/m 2,5 km/h (1 Bft) O-NO 0,15 h 0,025 mm 47 W/m 13,7 C 17,7 C 5,0 km/h (1 Bft)
18/08/2008 08:00 20,2 C 73 % 1014,9 hPa 0,0 l/m 3,0 km/h (1 Bft) O-NO 0,48 h 0,051 mm 165 W/m 15,2 C 20,2 C 5,2 km/h (1 Bft)
18/08/2008 09:00 22,8 C 65 % 1015,3 hPa 0,0 l/m 3,5 km/h (1 Bft) S 0,98 h 0,127 mm 425 W/m 15,9 C 22,8 C 6,1 km/h (2 Bft)
18/08/2008 10:00 24,5 C 57 % 1015,6 hPa 0,0 l/m 7,8 km/h (2 Bft) E 1,00 h 0,279 mm 577 W/m 15,5 C 24,5 C 12,0 km/h (2 Bft)
18/08/2008 11:00 25,9 C 54 % 1016,0 hPa 0,0 l/m 10,9 km/h (2 Bft) E 1,00 h 0,406 mm 702 W/m 15,8 C 25,9 C 16,3 km/h (3 Bft)
18/08/2008 12:00 26,4 C 49 % 1015,9 hPa 0,0 l/m 11,9 km/h (2 Bft) E 1,00 h 0,533 mm 784 W/m 14,9 C 26,4 C 17,5 km/h (3 Bft)
18/08/2008 13:00 26,6 C 50 % 1015,7 hPa 0,0 l/m 11,3 km/h (2 Bft) E 1,00 h 0,610 mm 813 W/m 15,3 C 26,6 C 17,5 km/h (3 Bft)
18/08/2008 14:00 26,8 C 53 % 1015,7 hPa 0,0 l/m 11,6 km/h (2 Bft) E 1,00 h 0,610 mm 785 W/m 16,5 C 26,8 C 17,5 km/h (3 Bft)
18/08/2008 15:00 26,7 C 58 % 1015,7 hPa 0,0 l/m 11,2 km/h (2 Bft) E 1,00 h 0,584 mm 713 W/m 17,7 C 26,7 C 16,9 km/h (3 Bft)
18/08/2008 16:00 26,1 C 62 % 1015,7 hPa 0,0 l/m 9,2 km/h (2 Bft) E 0,87 h 0,533 mm 550 W/m 18,1 C 26,1 C 14,3 km/h (3 Bft)
18/08/2008 17:00 25,1 C 65 % 1015,5 hPa 0,0 l/m 6,9 km/h (2 Bft) E 0,65 h 0,406 mm 306 W/m 18,0 C 25,1 C 10,6 km/h (2 Bft)
18/08/2008 18:00 24,8 C 64 % 1015,3 hPa 0,0 l/m 6,7 km/h (2 Bft) E 0,85 h 0,229 mm 240 W/m 17,5 C 24,8 C 10,2 km/h (2 Bft)
18/08/2008 19:00 23,3 C 68 % 1015,2 hPa 0,0 l/m 2,4 km/h (1 Bft) E-SE 0,08 h 0,203 mm 47 W/m 17,2 C 23,3 C 4,4 km/h (1 Bft)
18/08/2008 20:00 21,8 C 75 % 1015,2 hPa 0,0 l/m 0,8 km/h (0 Bft) E-NE 0,02 h 0,051 mm 11 W/m 17,0 C 21,8 C 1,7 km/h (1 Bft)
18/08/2008 21:00 20,6 C 79 % 1015,6 hPa 0,0 l/m 0,7 km/h (0 Bft) N-NE 0,00 h 0,025 mm 0 W/m 16,9 C 20,6 C 1,6 km/h (1 Bft)
18/08/2008 22:00 19,9 C 80 % 1015,9 hPa 0,0 l/m 2,0 km/h (1 Bft) N-NO 0,00 h 0,025 mm 0 W/m 16,3 C 19,9 C 3,7 km/h (1 Bft)
18/08/2008 23:00 19,6 C 78 % 1016,2 hPa 0,0 l/m 0,9 km/h (0 Bft) N-NO 0,00 h 0,025 mm 0 W/m 15,7 C 19,6 C 2,0 km/h (1 Bft)
19/08/2008 00:00 19,4 C 79 % 1016,2 hPa 0,0 l/m 1,5 km/h (1 Bft) N-NO 0,00 h 0,025 mm 0 W/m 15,6 C 19,4 C 3,3 km/h (1 Bft)
19/08/2008 01:00 18,8 C 80 % 1015,8 hPa 0,0 l/m 2,4 km/h (1 Bft) N-NO 0,00 h 0,025 mm 0 W/m 15,3 C 18,8 C 4,2 km/h (1 Bft)
19/08/2008 02:00 19,0 C 80 % 1015,6 hPa 0,0 l/m 5,8 km/h (2 Bft) O-NO 0,00 h 0,025 mm 0 W/m 15,5 C 19,0 C 7,1 km/h (2 Bft)
19/08/2008 03:00 18,9 C 78 % 1015,5 hPa 0,0 l/m 6,7 km/h (2 Bft) O-NO 0,00 h 0,025 mm 0 W/m 15,0 C 18,9 C 8,6 km/h (2 Bft)
19/08/2008 04:00 18,2 C 78 % 1015,3 hPa 0,0 l/m 3,7 km/h (1 Bft) O-NO 0,00 h 0,051 mm 0 W/m 14,3 C 18,2 C 5,5 km/h (1 Bft)
19/08/2008 05:00 18,0 C 78 % 1014,9 hPa 0,0 l/m 1,8 km/h (1 Bft) O-NO 0,00 h 0,025 mm 0 W/m 14,2 C 18,0 C 2,9 km/h (1 Bft)
19/08/2008 06:00 18,2 C 77 % 1014,7 hPa 0,0 l/m 4,4 km/h (1 Bft) O-NO 0,07 h 0,025 mm 10 W/m 14,2 C 18,2 C 5,8 km/h (2 Bft)
19/08/2008 07:00 18,9 C 76 % 1014,8 hPa 0,0 l/m 5,5 km/h (1 Bft) O 0,15 h 0,025 mm 54 W/m 14,7 C 18,9 C 7,6 km/h (2 Bft)
19/08/2008 08:00 21,2 C 76 % 1014,8 hPa 0,0 l/m 2,5 km/h (1 Bft) O 0,43 h 0,051 mm 149 W/m 16,8 C 21,2 C 4,5 km/h (1 Bft)
19/08/2008 09:00 23,1 C 69 % 1014,8 hPa 0,0 l/m 5,2 km/h (1 Bft) S 1,00 h 0,102 mm 415 W/m 17,1 C 23,1 C 7,9 km/h (2 Bft)
19/08/2008 10:00 25,1 C 60 % 1015,0 hPa 0,0 l/m 5,6 km/h (1 Bft) S-SE 1,00 h 0,279 mm 568 W/m 16,7 C 25,1 C 9,1 km/h (2 Bft)
19/08/2008 11:00 26,4 C 63 % 1014,8 hPa 0,0 l/m 10,2 km/h (2 Bft) E 1,00 h 0,406 mm 689 W/m 18,8 C 26,4 C 15,0 km/h (3 Bft)
19/08/2008 12:00 27,0 C 61 % 1014,5 hPa 0,0 l/m 12,0 km/h (2 Bft) E 1,00 h 0,508 mm 769 W/m 18,9 C 27,0 C 17,1 km/h (3 Bft)
19/08/2008 13:00 27,0 C 61 % 1014,3 hPa 0,0 l/m 12,0 km/h (2 Bft) E 1,00 h 0,584 mm 804 W/m 18,7 C 27,0 C 17,2 km/h (3 Bft)
19/08/2008 14:00 26,7 C 60 % 1014,1 hPa 0,0 l/m 10,9 km/h (2 Bft) E 0,83 h 0,610 mm 680 W/m 18,4 C 26,7 C 16,3 km/h (3 Bft)
19/08/2008 15:00 26,5 C 60 % 1013,8 hPa 0,0 l/m 9,2 km/h (2 Bft) E 0,83 h 0,508 mm 657 W/m 18,1 C 26,5 C 14,2 km/h (3 Bft)
19/08/2008 16:00 26,7 C 59 % 1013,4 hPa 0,0 l/m 8,9 km/h (2 Bft) E 0,90 h 0,508 mm 584 W/m 17,9 C 26,7 C 13,5 km/h (3 Bft)
19/08/2008 17:00 26,6 C 63 % 1013,1 hPa 0,0 l/m 6,9 km/h (2 Bft) E 1,00 h 0,432 mm 444 W/m 18,9 C 26,6 C 10,9 km/h (2 Bft)
19/08/2008 18:00 25,5 C 70 % 1012,6 hPa 0,0 l/m 4,0 km/h (1 Bft) E-SE 1,00 h 0,330 mm 259 W/m 19,5 C 25,5 C 7,4 km/h (2 Bft)
19/08/2008 19:00 23,9 C 76 % 1012,4 hPa 0,0 l/m 1,5 km/h (1 Bft) SE 0,65 h 0,178 mm 97 W/m 19,4 C 23,9 C 3,5 km/h (1 Bft)
19/08/2008 20:00 22,1 C 81 % 1012,4 hPa 0,0 l/m 0,1 km/h (0 Bft) E-SE 0,00 h 0,076 mm 13 W/m 18,7 C 22,1 C 0,1 km/h (0 Bft)
19/08/2008 21:00 21,0 C 85 % 1012,4 hPa 0,0 l/m 0,0 km/h (0 Bft) N 0,00 h 0,000 mm 0 W/m 18,3 C 21,0 C 0,0 km/h (0 Bft)
19/08/2008 22:00 20,6 C 87 % 1012,0 hPa 0,0 l/m 0,0 km/h (0 Bft) E-SE 0,00 h 0,025 mm 0 W/m 18,3 C 20,6 C 0,1 km/h (0 Bft)
19/08/2008 23:00 20,4 C 89 % 1011,9 hPa 0,0 l/m 1,5 km/h (1 Bft) E-SE 0,00 h 0,025 mm 0 W/m 18,5 C 20,4 C 2,3 km/h (1 Bft)
20/08/2008 00:00 20,4 C 90 % 1011,8 hPa 0,0 l/m 1,3 km/h (1 Bft) S-SO 0,00 h 0,025 mm 0 W/m 18,7 C 20,4 C 2,6 km/h (1 Bft)
20/08/2008 01:00 20,0 C 90 % 1010,8 hPa 0,0 l/m 6,6 km/h (2 Bft) NE 0,00 h 0,025 mm 0 W/m 18,3 C 20,0 C 8,8 km/h (2 Bft)
20/08/2008 02:00 19,8 C 88 % 1011,2 hPa 0,0 l/m 5,1 km/h (1 Bft) O-SO 0,00 h 0,025 mm 0 W/m 17,8 C 19,8 C 6,7 km/h (2 Bft)
20/08/2008 03:00 19,6 C 84 % 1011,0 hPa 0,0 l/m 2,4 km/h (1 Bft) NO 0,00 h 0,025 mm 0 W/m 16,7 C 19,6 C 3,9 km/h (1 Bft)
20/08/2008 04:00 19,7 C 75 % 1010,7 hPa 0,0 l/m 1,1 km/h (1 Bft) NO 0,00 h 0,025 mm 0 W/m 15,0 C 19,7 C 2,2 km/h (1 Bft)
20/08/2008 05:00 19,4 C 72 % 1010,4 hPa 0,0 l/m 1,6 km/h (1 Bft) NO 0,00 h 0,025 mm 0 W/m 14,2 C 19,4 C 2,4 km/h (1 Bft)
20/08/2008 06:00 19,5 C 69 % 1010,5 hPa 0,0 l/m 2,9 km/h (1 Bft) O-SO 0,05 h 0,025 mm 10 W/m 13,7 C 19,5 C 3,8 km/h (1 Bft)
20/08/2008 07:00 19,5 C 68 % 1011,0 hPa 0,0 l/m 1,5 km/h (1 Bft) E-NE 0,08 h 0,025 mm 52 W/m 13,4 C 19,5 C 3,3 km/h (1 Bft)
20/08/2008 08:00 21,4 C 59 % 1011,3 hPa 0,0 l/m 2,7 km/h (1 Bft) NE 0,27 h 0,051 mm 137 W/m 13,1 C 21,4 C 4,8 km/h (1 Bft)
20/08/2008 09:00 24,0 C 57 % 1011,4 hPa 0,0 l/m 2,3 km/h (1 Bft) N-NO 1,00 h 0,102 mm 420 W/m 14,9 C 24,0 C 5,1 km/h (1 Bft)
20/08/2008 10:00 26,0 C 62 % 1011,8 hPa 0,0 l/m 5,9 km/h (2 Bft) S 1,00 h 0,279 mm 583 W/m 18,1 C 26,0 C 9,6 km/h (2 Bft)
20/08/2008 11:00 26,6 C 66 % 1011,9 hPa 0,0 l/m 11,4 km/h (2 Bft) E 1,00 h 0,406 mm 709 W/m 19,7 C 26,6 C 16,4 km/h (3 Bft)
20/08/2008 12:00 27,2 C 62 % 1011,9 hPa 0,0 l/m 11,4 km/h (2 Bft) E 1,00 h 0,508 mm 789 W/m 19,3 C 27,2 C 17,1 km/h (3 Bft)
20/08/2008 13:00 27,0 C 59 % 1011,8 hPa 0,0 l/m 11,2 km/h (2 Bft) E 1,00 h 0,584 mm 816 W/m 18,4 C 27,0 C 16,3 km/h (3 Bft)
20/08/2008 14:00 27,9 C 53 % 1011,8 hPa 0,0 l/m 8,9 km/h (2 Bft) E 1,00 h 0,610 mm 799 W/m 17,5 C 27,9 C 15,0 km/h (3 Bft)
20/08/2008 15:00 28,3 C 52 % 1011,5 hPa 0,0 l/m 8,3 km/h (2 Bft) E 1,00 h 0,584 mm 725 W/m 17,4 C 28,3 C 12,8 km/h (3 Bft)
20/08/2008 16:00 28,1 C 54 % 1011,3 hPa 0,0 l/m 7,0 km/h (2 Bft) E 1,00 h 0,559 mm 609 W/m 17,8 C 28,1 C 11,4 km/h (2 Bft)
20/08/2008 17:00 27,7 C 55 % 1011,4 hPa 0,0 l/m 8,4 km/h (2 Bft) E-NE 1,00 h 0,457 mm 452 W/m 17,8 C 27,7 C 13,2 km/h (3 Bft)
20/08/2008 18:00 26,8 C 58 % 1011,4 hPa 0,0 l/m 10,1 km/h (2 Bft) E-NE 1,00 h 0,356 mm 276 W/m 17,9 C 26,8 C 14,1 km/h (3 Bft)
20/08/2008 19:00 24,9 C 69 % 1011,5 hPa 0,0 l/m 9,3 km/h (2 Bft) E-NE 0,73 h 0,254 mm 101 W/m 18,9 C 24,9 C 13,2 km/h (3 Bft)
20/08/2008 20:00 22,7 C 80 % 1011,9 hPa 0,0 l/m 7,2 km/h (2 Bft) E-NE 0,02 h 0,127 mm 11 W/m 19,1 C 22,7 C 10,4 km/h (2 Bft)
20/08/2008 21:00 21,6 C 86 % 1012,6 hPa 0,0 l/m 5,4 km/h (1 Bft) E 0,00 h 0,025 mm 0 W/m 19,3 C 21,6 C 8,0 km/h (2 Bft)
20/08/2008 22:00 21,0 C 88 % 1013,2 hPa 0,0 l/m 1,3 km/h (1 Bft) E-SE 0,00 h 0,025 mm 0 W/m 19,0 C 21,0 C 2,9 km/h (1 Bft)
20/08/2008 23:00 20,4 C 89 % 1013,5 hPa 0,0 l/m 0,8 km/h (0 Bft) E-SE 0,00 h 0,025 mm 0 W/m 18,4 C 20,4 C 1,8 km/h (1 Bft)
21/08/2008 00:00 19,9 C 90 % 1013,7 hPa 0,0 l/m 3,5 km/h (1 Bft) O-SO 0,00 h 0,025 mm 0 W/m 18,3 C 19,9 C 4,8 km/h (1 Bft)
21/08/2008 01:00 19,2 C 91 % 1013,9 hPa 0,0 l/m 6,6 km/h (2 Bft) O 0,00 h 0,025 mm 0 W/m 17,7 C 19,2 C 8,5 km/h (2 Bft)
21/08/2008 02:00 18,6 C 91 % 1013,8 hPa 0,0 l/m 7,9 km/h (2 Bft) O 0,00 h 0,025 mm 0 W/m 17,1 C 18,6 C 10,6 km/h (2 Bft)
21/08/2008 03:00 19,0 C 90 % 1013,8 hPa 0,0 l/m 7,3 km/h (2 Bft) O 0,00 h 0,025 mm 0 W/m 17,3 C 19,0 C 9,6 km/h (2 Bft)
21/08/2008 04:00 18,5 C 89 % 1014,0 hPa 0,0 l/m 7,3 km/h (2 Bft) O 0,00 h 0,025 mm 0 W/m 16,6 C 18,5 C 9,7 km/h (2 Bft)
21/08/2008 05:00 18,0 C 80 % 1014,0 hPa 0,0 l/m 8,1 km/h (2 Bft) O-NO 0,00 h 0,025 mm 0 W/m 14,5 C 18,0 C 10,5 km/h (2 Bft)
21/08/2008 06:00 18,2 C 72 % 1014,1 hPa 0,0 l/m 9,7 km/h (2 Bft) O-NO 0,03 h 0,051 mm 8 W/m 13,0 C 18,2 C 13,0 km/h (3 Bft)
21/08/2008 07:00 18,5 C 71 % 1014,5 hPa 0,0 l/m 5,2 km/h (1 Bft) O-NO 0,10 h 0,051 mm 40 W/m 13,1 C 18,5 C 7,3 km/h (2 Bft)
21/08/2008 08:00 20,7 C 67 % 1015,0 hPa 0,0 l/m 2,2 km/h (1 Bft) NE 0,22 h 0,051 mm 125 W/m 14,4 C 20,7 C 4,4 km/h (1 Bft)
21/08/2008 09:00 23,8 C 59 % 1015,1 hPa 0,0 l/m 3,0 km/h (1 Bft) E-NE 1,00 h 0,102 mm 411 W/m 15,3 C 23,8 C 5,4 km/h (1 Bft)
21/08/2008 10:00 25,5 C 61 % 1015,5 hPa 0,0 l/m 6,7 km/h (2 Bft) S 1,00 h 0,279 mm 563 W/m 17,5 C 25,5 C 10,9 km/h (2 Bft)
21/08/2008 11:00 26,8 C 62 % 1015,8 hPa 0,0 l/m 8,5 km/h (2 Bft) S 1,00 h 0,406 mm 683 W/m 18,8 C 26,8 C 13,2 km/h (3 Bft)
21/08/2008 12:00 27,7 C 59 % 1015,9 hPa 0,0 l/m 9,2 km/h (2 Bft) E 1,00 h 0,483 mm 767 W/m 19,0 C 27,7 C 15,0 km/h (3 Bft)
21/08/2008 13:00 27,3 C 66 % 1015,7 hPa 0,0 l/m 11,8 km/h (2 Bft) E 1,00 h 0,559 mm 800 W/m 20,3 C 27,3 C 17,0 km/h (3 Bft)
21/08/2008 14:00 27,1 C 67 % 1015,6 hPa 0,0 l/m 12,1 km/h (2 Bft) E 1,00 h 0,584 mm 782 W/m 20,4 C 27,1 C 17,2 km/h (3 Bft)
21/08/2008 15:00 27,2 C 65 % 1015,5 hPa 0,0 l/m 9,1 km/h (2 Bft) E 1,00 h 0,559 mm 705 W/m 20,1 C 27,2 C 14,0 km/h (3 Bft)
21/08/2008 16:00 27,0 C 62 % 1015,3 hPa 0,0 l/m 8,3 km/h (2 Bft) S 1,00 h 0,508 mm 587 W/m 19,2 C 27,0 C 12,8 km/h (3 Bft)
21/08/2008 17:00 26,7 C 62 % 1015,1 hPa 0,0 l/m 6,4 km/h (2 Bft) S 1,00 h 0,432 mm 432 W/m 18,7 C 26,7 C 10,1 km/h (2 Bft)
21/08/2008 18:00 26,1 C 63 % 1014,8 hPa 0,0 l/m 4,9 km/h (1 Bft) S-SE 1,00 h 0,330 mm 260 W/m 18,4 C 26,1 C 7,5 km/h (2 Bft)
21/08/2008 19:00 25,3 C 66 % 1014,6 hPa 0,0 l/m 4,2 km/h (1 Bft) S 0,57 h 0,203 mm 90 W/m 18,4 C 25,3 C 6,6 km/h (2 Bft)
21/08/2008 20:00 23,4 C 73 % 1014,7 hPa 0,0 l/m 0,6 km/h (0 Bft) S 0,03 h 0,076 mm 12 W/m 18,2 C 23,4 C 1,6 km/h (1 Bft)
21/08/2008 21:00 21,9 C 78 % 1014,7 hPa 0,0 l/m 0,0 km/h (0 Bft) N 0,00 h 0,025 mm 0 W/m 17,8 C 21,9 C 0,3 km/h (0 Bft)
21/08/2008 22:00 20,9 C 80 % 1014,9 hPa 0,0 l/m 0,0 km/h (0 Bft) N 0,00 h 0,025 mm 0 W/m 17,4 C 20,9 C 0,1 km/h (0 Bft)
21/08/2008 23:00 20,8 C 82 % 1015,1 hPa 0,0 l/m 3,1 km/h (1 Bft) S 0,00 h 0,025 mm 0 W/m 17,7 C 20,8 C 4,3 km/h (1 Bft)
22/08/2008 00:00 20,7 C 81 % 1015,1 hPa 0,0 l/m 1,8 km/h (1 Bft) NO 0,00 h 0,025 mm 0 W/m 17,2 C 20,7 C 3,2 km/h (1 Bft)
22/08/2008 01:00 20,3 C 79 % 1014,6 hPa 0,0 l/m 0,6 km/h (0 Bft) NO 0,00 h 0,025 mm 0 W/m 16,5 C 20,3 C 0,9 km/h (0 Bft)
22/08/2008 02:00 20,1 C 80 % 1014,4 hPa 0,0 l/m 2,3 km/h (1 Bft) NO 0,00 h 0,025 mm 0 W/m 16,4 C 20,1 C 3,5 km/h (1 Bft)
22/08/2008 03:00 20,0 C 78 % 1014,0 hPa 0,0 l/m 1,2 km/h (1 Bft) NO 0,00 h 0,025 mm 0 W/m 16,1 C 20,0 C 2,2 km/h (1 Bft)
22/08/2008 04:00 19,7 C 80 % 1013,7 hPa 0,0 l/m 0,5 km/h (0 Bft) NO 0,00 h 0,025 mm 0 W/m 16,1 C 19,7 C 0,9 km/h (0 Bft)
22/08/2008 05:00 19,4 C 80 % 1013,4 hPa 0,0 l/m 0,4 km/h (0 Bft) NO 0,00 h 0,025 mm 0 W/m 15,8 C 19,4 C 0,8 km/h (0 Bft)
22/08/2008 06:00 19,3 C 78 % 1013,3 hPa 0,0 l/m 3,2 km/h (1 Bft) NO 0,07 h 0,025 mm 9 W/m 15,4 C 19,3 C 4,3 km/h (1 Bft)
22/08/2008 07:00 19,8 C 77 % 1013,5 hPa 0,0 l/m 3,1 km/h (1 Bft) NO 0,07 h 0,025 mm 42 W/m 15,6 C 19,8 C 4,6 km/h (1 Bft)
22/08/2008 08:00 21,6 C 72 % 1013,6 hPa 0,0 l/m 1,4 km/h (1 Bft) O-NO 0,27 h 0,051 mm 135 W/m 16,3 C 21,6 C 3,0 km/h (1 Bft)
22/08/2008 09:00 24,8 C 59 % 1013,6 hPa 0,0 l/m 2,1 km/h (1 Bft) O-SO 1,00 h 0,102 mm 387 W/m 16,2 C 24,8 C 4,1 km/h (1 Bft)
22/08/2008 10:00 26,9 C 53 % 1014,0 hPa 0,0 l/m 4,5 km/h (1 Bft) S-SO 1,00 h 0,254 mm 543 W/m 16,6 C 26,9 C 7,7 km/h (2 Bft)
22/08/2008 11:00 28,2 C 53 % 1013,6 hPa 0,0 l/m 8,2 km/h (2 Bft) S 0,98 h 0,381 mm 652 W/m 17,6 C 28,2 C 13,0 km/h (3 Bft)
22/08/2008 12:00 28,5 C 52 % 1013,0 hPa 0,0 l/m 11,5 km/h (2 Bft) S 1,00 h 0,508 mm 732 W/m 17,6 C 28,5 C 17,5 km/h (3 Bft)
22/08/2008 13:00 27,7 C 54 % 1012,7 hPa 0,0 l/m 12,1 km/h (2 Bft) S 1,00 h 0,584 mm 702 W/m 17,5 C 27,7 C 18,9 km/h (3 Bft)
22/08/2008 14:00 27,0 C 55 % 1012,9 hPa 0,0 l/m 11,6 km/h (2 Bft) S 0,85 h 0,559 mm 631 W/m 17,3 C 27,0 C 16,9 km/h (3 Bft)
22/08/2008 15:00 28,2 C 49 % 1012,3 hPa 0,0 l/m 7,7 km/h (2 Bft) SE 1,00 h 0,483 mm 694 W/m 16,6 C 28,2 C 12,8 km/h (3 Bft)
22/08/2008 16:00 27,8 C 59 % 1011,6 hPa 0,0 l/m 8,3 km/h (2 Bft) E 0,57 h 0,508 mm 425 W/m 19,0 C 27,8 C 12,5 km/h (3 Bft)
22/08/2008 17:00 26,9 C 72 % 1011,2 hPa 0,0 l/m 10,8 km/h (2 Bft) E 0,97 h 0,356 mm 408 W/m 21,4 C 26,9 C 16,0 km/h (3 Bft)
22/08/2008 18:00 26,2 C 75 % 1010,7 hPa 0,0 l/m 6,7 km/h (2 Bft) N-NE 1,00 h 0,305 mm 247 W/m 21,4 C 26,2 C 10,6 km/h (2 Bft)
22/08/2008 19:00 25,4 C 76 % 1010,4 hPa 0,0 l/m 1,9 km/h (1 Bft) N-NE 0,20 h 0,178 mm 66 W/m 20,8 C 25,4 C 4,0 km/h (1 Bft)
22/08/2008 20:00 23,6 C 79 % 1010,3 hPa 0,0 l/m 0,9 km/h (0 Bft) N-NE 0,05 h 0,051 mm 13 W/m 19,8 C 23,6 C 2,6 km/h (1 Bft)
22/08/2008 21:00 22,6 C 83 % 1010,2 hPa 0,0 l/m 1,7 km/h (1 Bft) N-NE 0,00 h 0,025 mm 0 W/m 19,6 C 22,6 C 3,4 km/h (1 Bft)
22/08/2008 22:00 22,0 C 87 % 1010,1 hPa 0,0 l/m 1,1 km/h (1 Bft) N-NE 0,00 h 0,025 mm 0 W/m 19,7 C 22,0 C 1,8 km/h (1 Bft)
22/08/2008 23:00 21,5 C 89 % 1009,9 hPa 0,0 l/m 0,5 km/h (0 Bft) N 0,00 h 0,025 mm 0 W/m 19,7 C 21,5 C 1,2 km/h (1 Bft)
23/08/2008 00:00 20,9 C 91 % 1009,7 hPa 0,0 l/m 3,9 km/h (1 Bft) N-NO 0,00 h 0,025 mm 0 W/m 19,3 C 20,9 C 5,7 km/h (1 Bft)
23/08/2008 01:00 20,4 C 81 % 1009,5 hPa 0,0 l/m 10,2 km/h (2 Bft) O-SO 0,00 h 0,025 mm 0 W/m 16,8 C 20,4 C 15,3 km/h (3 Bft)
23/08/2008 02:00 22,0 C 62 % 1008,6 hPa 0,0 l/m 20,0 km/h (4 Bft) O-SO 0,00 h 0,051 mm 0 W/m 14,3 C 22,0 C 26,4 km/h (4 Bft)
23/08/2008 03:00 21,1 C 64 % 1008,3 hPa 0,0 l/m 11,0 km/h (2 Bft) O 0,00 h 0,127 mm 0 W/m 13,9 C 21,1 C 16,2 km/h (3 Bft)
23/08/2008 04:00 20,8 C 64 % 1008,0 hPa 0,0 l/m 11,1 km/h (2 Bft) O-SO 0,00 h 0,076 mm 0 W/m 13,6 C 20,8 C 17,7 km/h (3 Bft)
23/08/2008 05:00 19,9 C 66 % 1007,4 hPa 0,0 l/m 14,0 km/h (3 Bft) O-SO 0,00 h 0,076 mm 0 W/m 13,3 C 19,9 C 20,3 km/h (4 Bft)
23/08/2008 06:00 18,8 C 68 % 1006,7 hPa 0,0 l/m 14,6 km/h (3 Bft) O 0,08 h 0,076 mm 9 W/m 12,9 C 18,8 C 20,6 km/h (4 Bft)
23/08/2008 07:00 18,3 C 68 % 1006,6 hPa 0,0 l/m 4,5 km/h (1 Bft) NO 0,10 h 0,076 mm 40 W/m 12,3 C 18,3 C 6,4 km/h (2 Bft)
23/08/2008 08:00 19,8 C 63 % 1006,7 hPa 0,0 l/m 1,0 km/h (0 Bft) N 0,28 h 0,051 mm 134 W/m 12,6 C 19,8 C 2,3 km/h (1 Bft)
23/08/2008 09:00 23,5 C 51 % 1006,5 hPa 0,0 l/m 2,5 km/h (1 Bft) E 1,00 h 0,102 mm 431 W/m 12,9 C 23,5 C 4,5 km/h (1 Bft)
23/08/2008 10:00 25,4 C 45 % 1006,6 hPa 0,0 l/m 5,4 km/h (1 Bft) O-SO 1,00 h 0,279 mm 588 W/m 12,7 C 25,4 C 8,7 km/h (2 Bft)
23/08/2008 11:00 26,8 C 49 % 1006,6 hPa 0,0 l/m 10,5 km/h (2 Bft) E 1,00 h 0,432 mm 704 W/m 15,3 C 26,8 C 15,4 km/h (3 Bft)
23/08/2008 12:00 27,3 C 49 % 1006,5 hPa 0,0 l/m 10,6 km/h (2 Bft) E 1,00 h 0,533 mm 781 W/m 15,6 C 27,3 C 16,5 km/h (3 Bft)
23/08/2008 13:00 28,2 C 45 % 1006,0 hPa 0,0 l/m 11,1 km/h (2 Bft) E 1,00 h 0,610 mm 814 W/m 15,1 C 28,2 C 16,6 km/h (3 Bft)
23/08/2008 14:00 29,0 C 35 % 1005,5 hPa 0,0 l/m 11,7 km/h (2 Bft) E-NE 1,00 h 0,635 mm 793 W/m 12,1 C 29,0 C 16,4 km/h (3 Bft)
23/08/2008 15:00 30,0 C 31 % 1004,8 hPa 0,0 l/m 13,7 km/h (3 Bft) E-NE 1,00 h 0,660 mm 720 W/m 11,1 C 30,0 C 19,4 km/h (3 Bft)
23/08/2008 16:00 29,8 C 38 % 1004,2 hPa 0,0 l/m 15,8 km/h (3 Bft) E 1,00 h 0,660 mm 600 W/m 13,7 C 29,8 C 21,1 km/h (4 Bft)
23/08/2008 17:00 28,4 C 46 % 1004,0 hPa 0,0 l/m 10,9 km/h (2 Bft) E-NE 1,00 h 0,584 mm 446 W/m 15,6 C 28,4 C 15,6 km/h (3 Bft)
23/08/2008 18:00 27,0 C 50 % 1003,9 hPa 0,0 l/m 12,7 km/h (3 Bft) E 1,00 h 0,406 mm 271 W/m 15,7 C 27,0 C 17,9 km/h (3 Bft)
23/08/2008 19:00 24,5 C 61 % 1004,1 hPa 0,0 l/m 10,3 km/h (2 Bft) E 0,72 h 0,279 mm 95 W/m 16,4 C 24,5 C 14,9 km/h (3 Bft)
23/08/2008 20:00 22,5 C 71 % 1004,5 hPa 0,0 l/m 4,4 km/h (1 Bft) E 0,03 h 0,127 mm 10 W/m 16,8 C 22,5 C 7,1 km/h (2 Bft)
23/08/2008 21:00 21,6 C 79 % 1005,0 hPa 0,0 l/m 1,7 km/h (1 Bft) E-SE 0,00 h 0,025 mm 0 W/m 17,8 C 21,6 C 4,0 km/h (1 Bft)
23/08/2008 22:00 20,9 C 84 % 1005,3 hPa 0,0 l/m 3,3 km/h (1 Bft) E-SE 0,00 h 0,025 mm 0 W/m 18,0 C 20,9 C 4,9 km/h (1 Bft)
23/08/2008 23:00 20,5 C 87 % 1005,5 hPa 0,0 l/m 4,5 km/h (1 Bft) SO 0,00 h 0,025 mm 0 W/m 18,3 C 20,5 C 6,8 km/h (2 Bft)
24/08/2008 00:00 19,9 C 88 % 1005,8 hPa 0,0 l/m 6,5 km/h (2 Bft) O 0,00 h 0,025 mm 0 W/m 17,8 C 19,9 C 9,2 km/h (2 Bft)
24/08/2008 01:00 19,5 C 88 % 1005,9 hPa 0,0 l/m 7,8 km/h (2 Bft) O 0,00 h 0,025 mm 0 W/m 17,4 C 19,5 C 10,7 km/h (2 Bft)
24/08/2008 02:00 19,3 C 84 % 1006,1 hPa 0,0 l/m 7,9 km/h (2 Bft) O 0,00 h 0,025 mm 0 W/m 16,4 C 19,3 C 10,7 km/h (2 Bft)
24/08/2008 03:00 19,2 C 80 % 1006,2 hPa 0,0 l/m 8,1 km/h (2 Bft) O 0,00 h 0,025 mm 0 W/m 15,7 C 19,2 C 10,8 km/h (2 Bft)
24/08/2008 04:00 19,1 C 81 % 1006,7 hPa 0,0 l/m 11,7 km/h (2 Bft) O-SO 0,00 h 0,051 mm 0 W/m 15,8 C 19,1 C 16,4 km/h (3 Bft)
24/08/2008 05:00 18,5 C 82 % 1007,3 hPa 0,0 l/m 9,6 km/h (2 Bft) O-NO 0,00 h 0,051 mm 0 W/m 15,4 C 18,5 C 12,7 km/h (3 Bft)
24/08/2008 06:00 18,1 C 66 % 1007,6 hPa 0,0 l/m 9,4 km/h (2 Bft) O-NO 0,00 h 0,051 mm 7 W/m 11,7 C 18,1 C 12,9 km/h (3 Bft)
24/08/2008 07:00 18,4 C 66 % 1008,1 hPa 0,0 l/m 2,9 km/h (1 Bft) O-NO 0,00 h 0,051 mm 36 W/m 12,0 C 18,4 C 4,7 km/h (1 Bft)
24/08/2008 08:00 20,6 C 64 % 1008,7 hPa 0,0 l/m 0,7 km/h (0 Bft) NO 0,32 h 0,051 mm 139 W/m 13,6 C 20,6 C 1,6 km/h (1 Bft)
24/08/2008 09:00 24,1 C 58 % 1009,0 hPa 0,0 l/m 3,6 km/h (1 Bft) E-NE 1,00 h 0,102 mm 399 W/m 15,3 C 24,1 C 6,3 km/h (2 Bft)
24/08/2008 10:00 25,7 C 54 % 1009,4 hPa 0,0 l/m 5,9 km/h (2 Bft) E-NE 1,00 h 0,279 mm 561 W/m 15,5 C 25,7 C 9,7 km/h (2 Bft)
24/08/2008 11:00 25,9 C 61 % 1010,0 hPa 0,0 l/m 10,8 km/h (2 Bft) E 1,00 h 0,406 mm 689 W/m 17,9 C 25,9 C 17,1 km/h (3 Bft)
24/08/2008 12:00 26,5 C 56 % 1010,3 hPa 0,0 l/m 11,0 km/h (2 Bft) E 1,00 h 0,508 mm 775 W/m 16,9 C 26,5 C 16,2 km/h (3 Bft)
24/08/2008 13:00 26,3 C 54 % 1010,4 hPa 0,0 l/m 10,2 km/h (2 Bft) E 1,00 h 0,584 mm 807 W/m 16,3 C 26,3 C 15,5 km/h (3 Bft)
24/08/2008 14:00 26,2 C 59 % 1010,4 hPa 0,0 l/m 8,3 km/h (2 Bft) E-SE 1,00 h 0,584 mm 783 W/m 17,6 C 26,2 C 13,4 km/h (3 Bft)
24/08/2008 15:00 27,0 C 54 % 1010,7 hPa 0,0 l/m 9,1 km/h (2 Bft) E 1,00 h 0,559 mm 705 W/m 16,7 C 27,0 C 14,4 km/h (3 Bft)
24/08/2008 16:00 27,4 C 44 % 1010,7 hPa 0,0 l/m 5,7 km/h (1 Bft) E-SE 1,00 h 0,533 mm 586 W/m 13,9 C 27,4 C 9,1 km/h (2 Bft)
24/08/2008 17:00 27,0 C 43 % 1010,4 hPa 0,0 l/m 4,5 km/h (1 Bft) E 1,00 h 0,432 mm 432 W/m 13,4 C 27,0 C 8,2 km/h (2 Bft)
24/08/2008 18:00 26,4 C 39 % 1010,4 hPa 0,0 l/m 2,6 km/h (1 Bft) E-SE 1,00 h 0,330 mm 258 W/m 11,3 C 26,4 C 6,1 km/h (2 Bft)
24/08/2008 19:00 24,8 C 45 % 1010,5 hPa 0,0 l/m 0,6 km/h (0 Bft) SE 0,60 h 0,203 mm 83 W/m 11,9 C 24,8 C 2,4 km/h (1 Bft)
24/08/2008 20:00 22,5 C 54 % 1010,7 hPa 0,0 l/m 0,1 km/h (0 Bft) SE 0,03 h 0,076 mm 10 W/m 12,8 C 22,5 C 0,6 km/h (0 Bft)
24/08/2008 21:00 21,0 C 61 % 1011,2 hPa 0,0 l/m 2,2 km/h (1 Bft) O-SO 0,00 h 0,025 mm 0 W/m 13,1 C 21,0 C 3,2 km/h (1 Bft)
24/08/2008 22:00 20,4 C 60 % 1011,4 hPa 0,0 l/m 2,4 km/h (1 Bft) O 0,00 h 0,051 mm 0 W/m 12,2 C 20,4 C 4,3 km/h (1 Bft)
24/08/2008 23:00 19,7 C 58 % 1011,4 hPa 0,0 l/m 3,5 km/h (1 Bft) O 0,00 h 0,051 mm 0 W/m 11,3 C 19,7 C 5,9 km/h (2 Bft)
Min-Date _ 18/08/08 23/08/08 23/08/08 - 18/08/08 - - - - 24/08/08 18/08/08 18/08/08
_ Min-Heure 06:05 15:06 18:00 - 01:06 - - - - 18:22 06:05 01:49
Minimum _ 16,8 C 29 % 1003,8 hPa - 0,0 km/h (0 Bft) - - - - 10,0 C 16,8 C 0,0 km/h (0 Bft)
Max-Date _ 23/08/08 21/08/08 18/08/08 18/08/08 23/08/08 - 18/08/08 23/08/08 19/08/08 22/08/08 23/08/08 23/08/08
_ Max-Heure 15:51 00:24 23:00 00:00 02:30 - 06:50 15:00 14:04 17:49 15:51 02:29
Maximum _ 30,4 C 91 % 1016,3 hPa 0,0 l/m 29,0 km/h
O-SO (5 Bft)
- 0,02 h 0,660 mm 854 W/m 21,7 C 30,4 C 37,0 km/h
O-SO (5 Bft)
Moyenne _ 22,9 C 68 % 1011,9 hPa #0,0 l/m 6,0 km/h (2 Bft) E #75:16 h #35,434 mm 414 W/m 16,4 C 22,9 C 9,0 km/h (2 Bft)
Roquefort les pins